Time;durP1;ratioP1;P1;durP2;ratioP2;P2;SDS_P1;SDS_P2;PMS_P1;PMS_P2;Temp;Humidity;BMP_temperature;BMP_pressure;BME280_temperature;BME280_humidity;BME280_pressure;Samples;Min_cycle;Max_cycle;Signal;HPM_P1;HPM_P2
2021/08/13 00:00:20;;;;;;;6.15;5.55;;;;;;;16.82;67.93;101199.00;263629;1096;114463;-72
2021/08/13 00:05:43;;;;;;;6.18;5.53;;;;;;;16.86;67.78;101210.16;263595;1094;114666;-70
2021/08/13 00:10:45;;;;;;;5.85;5.25;;;;;;;16.84;68.25;101204.98;263631;1094;114527;-71
2021/08/13 00:15:47;;;;;;;6.38;5.78;;;;;;;16.82;68.27;101209.67;263434;1095;114684;-70
2021/08/13 00:20:49;;;;;;;6.90;5.83;;;;;;;16.72;68.56;101217.02;263686;1095;114504;-69
2021/08/13 00:25:51;;;;;;;6.68;5.45;;;;;;;16.55;69.00;101212.77;263642;1096;114822;-71
2021/08/13 00:30:53;;;;;;;5.38;4.93;;;;;;;16.49;69.32;101221.44;263390;1096;114811;-71
2021/08/13 00:35:55;;;;;;;4.80;4.30;;;;;;;16.54;68.44;101216.41;263656;1095;114666;-70
2021/08/13 00:40:58;;;;;;;5.90;5.13;;;;;;;16.49;68.61;101226.77;263622;1095;114725;-70
2021/08/13 00:46:00;;;;;;;4.90;4.50;;;;;;;16.49;68.40;101219.59;263631;1095;114639;-70
2021/08/13 00:51:02;;;;;;;5.15;4.40;;;;;;;16.55;68.08;101215.43;263639;1095;114859;-69
2021/08/13 00:56:04;;;;;;;5.00;4.30;;;;;;;16.56;67.70;101219.75;263657;1095;115154;-69
2021/08/13 01:01:07;;;;;;;4.50;4.10;;;;;;;16.53;67.51;101209.41;263657;1094;114952;-73
2021/08/13 01:06:17;;;;;;;5.30;4.35;;;;;;;16.44;67.88;101210.45;263592;1096;114997;-71
2021/08/13 01:11:34;;;;;;;4.03;3.55;;;;;;;16.38;67.99;101212.81;263339;1095;115168;-71
2021/08/13 01:16:40;;;;;;;4.85;4.20;;;;;;;16.33;67.97;101212.47;263606;1095;114673;-71
2021/08/13 01:22:01;;;;;;;4.33;3.95;;;;;;;16.33;68.08;101201.80;263666;1096;114654;-72
2021/08/13 01:27:08;;;;;;;4.45;3.80;;;;;;;16.40;67.52;101205.45;263637;1096;114621;-69
2021/08/13 01:32:16;;;;;;;4.40;4.00;;;;;;;16.40;67.44;101205.45;263608;1095;114616;-70
2021/08/13 01:37:21;;;;;;;4.60;3.70;;;;;;;16.36;67.63;101197.97;263582;1094;114523;-71
2021/08/13 01:42:23;;;;;;;4.88;4.35;;;;;;;16.23;68.40;101206.52;263645;1096;114668;-72
2021/08/13 01:47:27;;;;;;;5.08;4.60;;;;;;;16.16;68.47;101208.19;263621;1095;115113;-70
2021/08/13 01:52:30;;;;;;;4.20;3.88;;;;;;;16.10;68.62;101199.02;263667;1095;114489;-71
2021/08/13 01:57:32;;;;;;;4.68;3.75;;;;;;;16.10;68.59;101199.02;263607;1095;114924;-70
2021/08/13 02:02:36;;;;;;;4.28;3.88;;;;;;;16.03;68.74;101197.19;263653;1095;114908;-72
2021/08/13 02:07:40;;;;;;;4.78;4.38;;;;;;;16.01;68.78;101201.88;263320;1096;114635;-71
2021/08/13 02:12:42;;;;;;;4.50;4.05;;;;;;;16.08;68.23;101202.88;263662;1095;114453;-70
2021/08/13 02:18:02;;;;;;;5.03;3.75;;;;;;;16.13;67.92;101203.19;263626;1096;114521;-70
2021/08/13 02:23:08;;;;;;;4.35;3.85;;;;;;;16.11;68.25;101205.17;263663;1095;114591;-70
2021/08/13 02:28:10;;;;;;;5.70;3.70;;;;;;;16.08;67.92;101216.20;263313;1096;114849;-70
2021/08/13 02:33:12;;;;;;;3.55;3.35;;;;;;;16.13;67.65;101213.86;263634;1095;114752;-70
2021/08/13 02:38:19;;;;;;;4.43;3.88;;;;;;;16.14;67.71;101215.52;263615;1096;114556;-71
2021/08/13 02:43:31;;;;;;;3.90;3.53;;;;;;;16.03;67.86;101223.86;263404;1096;114768;-71
2021/08/13 02:48:39;;;;;;;4.05;3.60;;;;;;;15.99;68.01;101218.02;263619;1094;114868;-70
2021/08/13 02:53:44;;;;;;;5.00;4.20;;;;;;;15.96;67.91;101214.89;263646;1095;114416;-70
2021/08/13 02:58:51;;;;;;;4.10;3.60;;;;;;;16.05;67.42;101224.53;263600;1094;114841;-70
2021/08/13 03:03:54;;;;;;;4.30;3.80;;;;;;;16.10;67.28;101219.52;263671;1096;115093;-71
2021/08/13 03:08:59;;;;;;;4.13;3.83;;;;;;;16.10;67.19;101219.52;263602;1095;114372;-71
2021/08/13 03:14:02;;;;;;;4.65;4.08;;;;;;;15.99;67.65;101223.36;263621;1095;114530;-70
2021/08/13 03:19:06;;;;;;;4.15;3.85;;;;;;;15.89;67.99;101222.72;263625;1096;115121;-70
2021/08/13 03:24:08;;;;;;;5.20;3.80;;;;;;;15.87;67.99;101225.53;263625;1095;114606;-71
2021/08/13 03:29:11;;;;;;;6.30;3.58;;;;;;;15.84;68.07;101225.89;263610;1095;114913;-71
2021/08/13 03:34:16;;;;;;;4.43;4.03;;;;;;;15.77;68.34;101210.73;263669;1095;114930;-72
2021/08/13 03:39:18;;;;;;;6.53;4.60;;;;;;;15.80;68.21;101213.89;263571;1095;114545;-71
2021/08/13 03:44:20;;;;;;;4.00;3.70;;;;;;;15.80;68.29;101213.89;263649;1096;115091;-70
2021/08/13 03:49:23;;;;;;;4.47;4.00;;;;;;;15.85;68.00;101208.88;263583;1096;115060;-70
2021/08/13 03:54:25;;;;;;;4.35;3.95;;;;;;;15.95;67.47;101202.53;263354;1096;114782;-70
2021/08/13 03:59:27;;;;;;;3.93;3.50;;;;;;;15.96;67.64;101209.55;263312;1095;114682;-71
2021/08/13 04:04:29;;;;;;;4.40;3.65;;;;;;;15.81;68.18;101210.22;263591;1095;114854;-71
2021/08/13 04:09:31;;;;;;;4.30;3.87;;;;;;;15.77;68.49;101214.22;263615;1096;114590;-71
2021/08/13 04:14:33;;;;;;;4.58;3.68;;;;;;;15.83;68.52;101218.87;263625;1096;114753;-70
2021/08/13 04:19:35;;;;;;;4.68;3.70;;;;;;;15.87;68.57;101222.86;263613;1096;115001;-70
2021/08/13 04:24:38;;;;;;;5.20;4.20;;;;;;;15.88;68.59;101227.22;263630;1095;114666;-73
2021/08/13 04:29:40;;;;;;;4.10;3.68;;;;;;;15.97;68.52;101229.88;263545;1096;114548;-69
2021/08/13 04:34:42;;;;;;;4.78;4.05;;;;;;;16.04;68.61;101238.88;263639;1095;114655;-70
2021/08/13 04:39:44;;;;;;;5.40;3.75;;;;;;;16.12;68.62;101244.20;263562;1096;114884;-71
2021/08/13 04:44:46;;;;;;;4.40;4.00;;;;;;;16.16;68.37;101240.19;263623;1096;114513;-70
2021/08/13 04:49:48;;;;;;;4.23;3.83;;;;;;;16.25;68.57;101241.83;263573;1095;114945;-71
2021/08/13 04:54:50;;;;;;;3.70;3.40;;;;;;;16.26;69.01;101246.16;263599;1096;115090;-71
2021/08/13 04:59:52;;;;;;;4.98;3.98;;;;;;;16.34;68.86;101254.17;263218;1095;114881;-70
2021/08/13 05:05:01;;;;;;;5.75;4.30;;;;;;;16.41;68.89;101256.98;263594;1095;114921;-70
2021/08/13 05:10:12;;;;;;;4.63;4.05;;;;;;;16.49;69.63;101262.30;263573;1096;114599;-70
2021/08/13 05:15:14;;;;;;;4.73;4.30;;;;;;;16.64;69.10;101255.25;263633;1096;114648;-70
2021/08/13 05:20:17;;;;;;;6.48;4.38;;;;;;;16.80;68.69;101253.56;263556;1096;114950;-70
2021/08/13 05:25:20;;;;;;;4.45;3.55;;;;;;;16.90;68.42;101249.69;263326;1096;114577;-69
2021/08/13 05:30:22;;;;;;;4.23;3.65;;;;;;;16.98;68.81;101256.01;263597;1096;115413;-71
2021/08/13 05:35:24;;;;;;;7.43;3.97;;;;;;;17.08;68.59;101248.59;263656;1096;114845;-71
2021/08/13 05:40:28;;;;;;;5.68;3.80;;;;;;;17.19;68.78;101248.20;263592;1096;114704;-69
2021/08/13 05:45:30;;;;;;;4.73;3.60;;;;;;;17.30;68.02;101250.48;263614;1096;115040;-70
2021/08/13 05:50:33;;;;;;;6.75;5.70;;;;;;;17.54;67.78;101246.82;263582;1095;114493;-69
2021/08/13 05:55:35;;;;;;;12.90;6.03;;;;;;;17.58;68.01;101249.97;263648;1095;114531;-68
2021/08/13 06:00:37;;;;;;;3.85;3.43;;;;;;;17.68;68.50;101253.25;263596;1096;114794;-69
2021/08/13 06:05:39;;;;;;;4.68;3.55;;;;;;;17.80;68.13;101259.88;263659;1095;114633;-69
2021/08/13 06:10:41;;;;;;;6.58;4.15;;;;;;;17.84;68.22;101252.33;263585;1095;114881;-69
2021/08/13 06:15:43;;;;;;;12.45;7.58;;;;;;;17.97;67.92;101252.53;263625;1096;114845;-71
2021/08/13 06:20:45;;;;;;;9.28;6.28;;;;;;;18.13;68.07;101251.55;263567;1095;115244;-69
2021/08/13 06:25:47;;;;;;;9.48;4.35;;;;;;;18.33;66.96;101258.07;263666;1096;114490;-70
2021/08/13 06:30:50;;;;;;;5.33;3.50;;;;;;;18.47;67.51;101252.91;263552;1096;114617;-69
2021/08/13 06:35:52;;;;;;;3.53;3.23;;;;;;;18.58;65.85;101255.13;263596;1096;114560;-70
2021/08/13 06:40:54;;;;;;;3.70;3.40;;;;;;;18.66;65.84;101256.89;263595;1095;114977;-70
2021/08/13 06:45:56;;;;;;;6.75;5.70;;;;;;;18.73;66.03;101255.99;263619;1095;114749;-69
2021/08/13 06:50:58;;;;;;;5.05;4.35;;;;;;;18.78;66.93;101255.43;263591;1095;114592;-70
2021/08/13 06:56:01;;;;;;;4.35;3.90;;;;;;;19.05;65.80;101251.24;263602;1095;114421;-70
2021/08/13 07:01:03;;;;;;;4.38;3.80;;;;;;;19.16;66.10;101258.80;263535;1096;114510;-69
2021/08/13 07:06:05;;;;;;;5.18;3.88;;;;;;;19.37;65.37;101259.84;262972;1096;114982;-70
2021/08/13 07:11:07;;;;;;;3.43;3.15;;;;;;;19.53;61.92;101257.75;263044;1095;114691;-68
2021/08/13 07:16:09;;;;;;;5.80;3.68;;;;;;;19.49;63.15;101258.33;263063;1095;115091;-68
2021/08/13 07:21:11;;;;;;;4.53;2.98;;;;;;;19.55;64.14;101252.22;263100;1095;114996;-72
2021/08/13 07:26:14;;;;;;;3.40;3.10;;;;;;;19.59;63.25;101257.00;263030;1095;114502;-70
2021/08/13 07:31:16;;;;;;;5.75;3.85;;;;;;;19.71;62.10;101251.16;262986;1096;114628;-70
2021/08/13 07:36:18;;;;;;;4.65;3.68;;;;;;;19.76;61.78;101257.59;262978;1095;114678;-72
2021/08/13 07:41:20;;;;;;;4.58;3.40;;;;;;;20.14;58.77;101261.84;262990;1096;114693;-69
2021/08/13 07:46:22;;;;;;;5.00;4.60;;;;;;;20.34;58.33;101270.05;263058;1095;114558;-71
2021/08/13 07:51:25;;;;;;;5.05;3.05;;;;;;;20.38;60.19;101264.09;263630;1096;114903;-70
2021/08/13 07:56:27;;;;;;;3.48;3.10;;;;;;;20.39;58.38;101263.05;262930;1095;114596;-69
2021/08/13 08:01:29;;;;;;;10.98;8.33;;;;;;;20.55;58.04;101275.38;263012;1095;114869;-70
2021/08/13 08:06:31;;;;;;;4.08;3.33;;;;;;;20.80;56.48;101268.50;263534;1095;114838;-70
2021/08/13 08:11:33;;;;;;;4.80;4.28;;;;;;;20.82;56.12;101270.16;263613;1095;114790;-70
2021/08/13 08:16:36;;;;;;;5.95;4.35;;;;;;;20.88;55.74;101272.89;263546;1096;114881;-71
2021/08/13 08:21:39;;;;;;;3.83;3.50;;;;;;;21.03;53.72;101262.83;263630;1095;115000;-70
2021/08/13 08:26:41;;;;;;;8.75;7.55;;;;;;;21.07;54.67;101263.25;263598;1095;114437;-71
2021/08/13 08:31:43;;;;;;;4.48;4.08;;;;;;;21.14;55.30;101258.74;263625;1095;114660;-69
2021/08/13 08:36:45;;;;;;;3.65;3.10;;;;;;;21.20;54.45;101265.16;263625;1095;114598;-70
2021/08/13 08:41:47;;;;;;;3.73;3.33;;;;;;;21.33;52.31;101273.28;263592;1095;114568;-70
2021/08/13 08:46:50;;;;;;;4.45;3.33;;;;;;;21.41;51.14;101269.59;263312;1095;114738;-70
2021/08/13 08:51:56;;;;;;;3.30;3.00;;;;;;;21.49;52.38;101277.46;263638;1095;114546;-70
2021/08/13 08:56:59;;;;;;;3.10;2.80;;;;;;;21.57;51.93;101273.76;263602;1095;114522;-70
2021/08/13 09:02:01;;;;;;;3.03;2.83;;;;;;;21.77;51.08;101269.26;263629;1095;114682;-69
2021/08/13 09:07:06;;;;;;;5.85;2.95;;;;;;;21.71;50.17;101268.20;263607;1095;114455;-70
2021/08/13 09:12:09;;;;;;;3.48;2.85;;;;;;;21.87;49.64;101263.45;263641;1095;114947;-70
2021/08/13 09:17:11;;;;;;;3.55;3.25;;;;;;;22.03;47.83;101273.81;263573;1096;114689;-67
2021/08/13 09:22:16;;;;;;;4.45;3.08;;;;;;;22.11;48.43;101270.91;263645;1096;114577;-71
2021/08/13 09:27:29;;;;;;;4.35;3.68;;;;;;;22.17;47.06;101267.43;263632;1096;114557;-69
2021/08/13 09:32:31;;;;;;;6.18;5.20;;;;;;;22.29;49.53;101262.23;263622;1095;114603;-71
2021/08/13 09:37:38;;;;;;;4.05;3.65;;;;;;;22.35;48.37;101264.11;263284;1096;114683;-70
2021/08/13 09:42:40;;;;;;;4.78;3.35;;;;;;;22.31;49.12;101267.41;263601;1095;114690;-70
2021/08/13 09:47:47;;;;;;;4.43;2.90;;;;;;;22.54;47.07;101259.70;263633;1095;114759;-70
2021/08/13 09:53:06;;;;;;;3.75;3.13;;;;;;;22.64;48.31;101265.48;263661;1095;114582;-70
2021/08/13 09:58:10;;;;;;;3.03;2.73;;;;;;;22.70;47.08;101263.80;263611;1096;114386;-69
2021/08/13 10:03:13;;;;;;;2.83;2.58;;;;;;;22.87;46.65;101248.01;263641;1095;115137;-69
2021/08/13 10:08:16;;;;;;;3.25;2.95;;;;;;;22.89;47.25;101252.13;263624;1096;114501;-70
2021/08/13 10:13:18;;;;;;;4.93;3.80;;;;;;;22.85;47.96;101250.08;263651;1095;114924;-70
2021/08/13 10:18:20;;;;;;;3.88;2.70;;;;;;;23.23;44.60;101242.88;263550;1095;114936;-70
2021/08/13 10:23:23;;;;;;;2.80;2.60;;;;;;;23.29;44.12;101246.59;263609;1095;114911;-70
2021/08/13 10:28:25;;;;;;;3.08;2.65;;;;;;;23.32;44.35;101242.63;263604;1096;114763;-70
2021/08/13 10:33:28;;;;;;;2.90;2.70;;;;;;;23.62;44.49;101245.55;263658;1095;114908;-70
2021/08/13 10:38:32;;;;;;;3.23;2.65;;;;;;;23.55;43.20;101245.59;263606;1096;114509;-71
2021/08/13 10:43:38;;;;;;;4.00;2.98;;;;;;;23.51;43.91;101240.84;263631;1095;114463;-71
2021/08/13 10:48:46;;;;;;;5.00;4.23;;;;;;;23.45;45.35;101235.29;263579;1095;114492;-70
2021/08/13 10:54:03;;;;;;;3.30;3.00;;;;;;;23.79;44.00;101229.66;263624;1096;114491;-70
2021/08/13 10:59:06;;;;;;;2.90;2.70;;;;;;;23.81;42.01;101223.02;263587;1095;114553;-69
2021/08/13 11:04:12;;;;;;;8.83;7.63;;;;;;;24.01;44.94;101216.61;263631;1095;114745;-69
2021/08/13 11:09:20;;;;;;;4.33;3.35;;;;;;;24.21;42.33;101212.66;263597;1096;114691;-69
2021/08/13 11:14:27;;;;;;;3.98;2.88;;;;;;;24.09;43.12;101209.05;263615;1095;114859;-70
2021/08/13 11:19:57;;;;;;;3.20;3.00;;;;;;;24.24;41.42;101199.78;263556;1096;114914;-70
2021/08/13 11:24:59;;;;;;;4.80;2.85;;;;;;;24.49;39.88;101192.44;263601;1096;115108;-70
2021/08/13 11:30:03;;;;;;;3.25;2.95;;;;;;;24.91;39.11;101179.04;263627;1096;114741;-70
2021/08/13 11:35:10;;;;;;;4.75;3.03;;;;;;;25.24;39.42;101188.59;263329;1095;114984;-71
2021/08/13 11:40:12;;;;;;;3.00;2.80;;;;;;;25.42;38.53;101185.81;263525;1096;114889;-70
2021/08/13 11:45:15;;;;;;;3.08;2.88;;;;;;;25.42;38.49;101185.81;263674;1095;114469;-69
2021/08/13 11:50:19;;;;;;;4.13;3.20;;;;;;;25.40;38.65;101187.95;263613;1096;114613;-71
2021/08/13 11:55:27;;;;;;;4.93;4.53;;;;;;;24.80;42.09;101182.51;263648;1095;114525;-71
2021/08/13 12:00:37;;;;;;;4.10;3.70;;;;;;;24.67;41.84;101178.11;263584;1096;114540;-71
2021/08/13 12:05:41;;;;;;;4.35;3.30;;;;;;;24.92;41.59;101175.27;263616;1096;114731;-70
2021/08/13 12:10:49;;;;;;;4.30;2.93;;;;;;;24.79;41.71;101159.23;263644;1096;114815;-70
2021/08/13 12:15:56;;;;;;;3.95;3.65;;;;;;;25.11;40.66;101163.38;263625;1095;114979;-71
2021/08/13 12:21:05;;;;;;;4.10;3.78;;;;;;;25.09;40.68;101151.13;263568;1094;114600;-70
2021/08/13 12:26:07;;;;;;;4.95;4.45;;;;;;;25.25;41.58;101144.26;263619;1095;114445;-70
2021/08/13 12:31:09;;;;;;;3.93;3.63;;;;;;;25.11;40.19;101140.91;263588;1095;114654;-70
2021/08/13 12:36:16;;;;;;;5.35;4.63;;;;;;;24.91;41.92;101135.77;263648;1095;114999;-70
2021/08/13 12:41:18;;;;;;;3.60;3.40;;;;;;;25.04;41.43;101145.56;263569;1096;115257;-70
2021/08/13 12:46:20;;;;;;;4.65;4.05;;;;;;;25.02;41.73;101134.98;263657;1095;114793;-70
2021/08/13 12:51:27;;;;;;;3.50;3.20;;;;;;;25.08;40.18;101155.72;263616;1096;115074;-70
2021/08/13 12:56:30;;;;;;;3.95;3.68;;;;;;;25.09;41.89;101148.42;263607;1095;115058;-70
2021/08/13 13:01:32;;;;;;;3.70;3.40;;;;;;;25.01;41.43;101149.57;263653;1096;114987;-70
2021/08/13 13:06:34;;;;;;;3.90;3.60;;;;;;;24.45;43.48;101139.90;263618;1095;114696;-70
2021/08/13 13:11:37;;;;;;;4.05;3.65;;;;;;;24.48;43.44;101139.45;263631;1096;114738;-73
2021/08/13 13:17:06;;;;;;;6.78;3.80;;;;;;;24.88;43.54;101128.11;263605;1096;114498;-69
2021/08/13 13:22:23;;;;;;;4.45;4.10;;;;;;;25.01;43.40;101124.41;263559;1095;114829;-70
2021/08/13 13:27:26;;;;;;;4.20;3.80;;;;;;;24.72;43.66;101131.45;263635;1096;114466;-70
2021/08/13 13:32:28;;;;;;;6.28;4.05;;;;;;;24.80;44.43;101125.73;263332;1095;114700;-70
2021/08/13 13:37:30;;;;;;;10.78;4.98;;;;;;;25.05;44.33;101126.42;263673;1096;114938;-74
2021/08/13 13:42:34;;;;;;;3.68;3.45;;;;;;;25.07;42.07;101118.06;263657;1096;115033;-70
2021/08/13 13:47:37;;;;;;;6.05;3.20;;;;;;;25.04;42.77;101111.22;263600;1095;114913;-70
2021/08/13 13:52:39;;;;;;;4.00;3.63;;;;;;;25.27;42.61;101115.08;263578;1096;114493;-73
2021/08/13 13:57:42;;;;;;;3.38;3.15;;;;;;;25.27;43.44;101109.66;263325;1096;114820;-72
2021/08/13 14:02:45;;;;;;;3.23;3.03;;;;;;;24.99;40.83;101107.58;263607;1095;114556;-69
2021/08/13 14:07:50;;;;;;;3.10;2.90;;;;;;;25.00;40.28;101107.33;263599;1096;114684;-69
2021/08/13 14:12:54;;;;;;;3.03;2.83;;;;;;;25.02;39.66;101094.41;263562;1096;114719;-71
2021/08/13 14:17:56;;;;;;;3.95;2.80;;;;;;;25.04;38.28;101094.99;263372;1096;114683;-70
2021/08/13 14:22:59;;;;;;;3.68;3.13;;;;;;;25.27;39.88;101096.13;263620;1095;114614;-69
2021/08/13 14:28:01;;;;;;;3.73;3.25;;;;;;;25.38;41.36;101103.45;263663;1095;114778;-71
2021/08/13 14:33:03;;;;;;;3.40;3.00;;;;;;;25.34;40.81;101086.84;263614;1096;114629;-70
2021/08/13 14:38:06;;;;;;;4.00;3.60;;;;;;;25.32;42.12;101090.87;263590;1095;115102;-70
2021/08/13 14:43:08;;;;;;;6.60;6.10;;;;;;;25.18;40.62;101093.77;263330;1095;115003;-71
2021/08/13 14:48:10;;;;;;;5.75;3.10;;;;;;;25.26;41.74;101091.79;263606;1096;114867;-70
2021/08/13 14:53:12;;;;;;;4.35;3.80;;;;;;;25.38;42.88;101076.38;263589;1096;114571;-70
2021/08/13 14:58:14;;;;;;;3.90;3.00;;;;;;;25.55;40.98;101082.77;263633;1095;115246;-69
2021/08/13 15:03:16;;;;;;;5.08;4.53;;;;;;;25.39;39.71;101084.28;263597;1096;114711;-71
2021/08/13 15:08:18;;;;;;;3.70;3.40;;;;;;;25.35;40.45;101082.26;263593;1096;114876;-70
2021/08/13 15:13:20;;;;;;;3.70;3.08;;;;;;;25.25;42.50;101073.91;263621;1095;114920;-70
2021/08/13 15:18:22;;;;;;;3.55;3.00;;;;;;;25.21;42.98;101073.55;263652;1095;114820;-70
2021/08/13 15:23:25;;;;;;;4.25;3.65;;;;;;;25.14;43.42;101057.42;263579;1095;114916;-70
2021/08/13 15:28:27;;;;;;;3.40;3.10;;;;;;;25.03;43.46;101052.78;263600;1095;114622;-69
2021/08/13 15:33:30;;;;;;;3.98;3.28;;;;;;;25.02;44.74;101058.44;263586;1096;114787;-69
2021/08/13 15:38:32;;;;;;;3.73;3.30;;;;;;;24.91;43.72;101054.64;263637;1096;114474;-70
2021/08/13 15:43:34;;;;;;;3.63;3.28;;;;;;;24.81;44.51;101043.55;263555;1096;114634;-70
2021/08/13 15:48:37;;;;;;;4.43;3.20;;;;;;;24.77;43.74;101055.89;263616;1096;114519;-70
2021/08/13 15:53:39;;;;;;;4.05;3.00;;;;;;;24.74;43.78;101042.86;263583;1095;114763;-70
2021/08/13 15:58:41;;;;;;;3.78;2.88;;;;;;;24.73;44.49;101041.19;263659;1095;115004;-70
2021/08/13 16:03:43;;;;;;;3.75;3.35;;;;;;;24.70;45.16;101039.79;263642;1096;115552;-69
2021/08/13 16:08:46;;;;;;;3.15;2.95;;;;;;;24.65;43.67;101035.08;263646;1095;114852;-70
2021/08/13 16:13:49;;;;;;;2.88;2.68;;;;;;;24.59;44.47;101027.88;263580;1095;114509;-72
2021/08/13 16:18:51;;;;;;;3.33;3.00;;;;;;;24.57;43.30;101027.27;263594;1096;114511;-70
2021/08/13 16:23:53;;;;;;;4.40;2.75;;;;;;;24.54;42.94;101018.83;263621;1095;114794;-71
2021/08/13 16:28:55;;;;;;;3.23;2.93;;;;;;;24.50;43.30;101015.76;263638;1095;115018;-70
2021/08/13 16:33:58;;;;;;;4.43;3.00;;;;;;;24.44;43.62;101014.78;263623;1095;114829;-71
2021/08/13 16:39:00;;;;;;;3.48;2.80;;;;;;;24.42;44.27;101024.19;263620;1096;114626;-71
2021/08/13 16:44:02;;;;;;;3.28;2.98;;;;;;;24.38;45.01;101009.42;263583;1095;114569;-70
2021/08/13 16:49:04;;;;;;;3.13;2.90;;;;;;;24.32;45.61;101007.66;263653;1095;114649;-72
2021/08/13 16:54:06;;;;;;;3.58;3.30;;;;;;;24.27;46.17;101000.25;263611;1095;114659;-71
2021/08/13 16:59:09;;;;;;;4.83;4.05;;;;;;;24.21;46.65;100996.56;263593;1095;114603;-71
2021/08/13 17:04:11;;;;;;;3.33;3.03;;;;;;;24.11;46.65;100990.91;263623;1096;114926;-72
2021/08/13 17:09:13;;;;;;;3.30;3.05;;;;;;;24.08;47.10;100994.05;263587;1096;114738;-70
2021/08/13 17:14:15;;;;;;;4.28;3.43;;;;;;;23.95;47.14;100983.40;263583;1095;114762;-70
2021/08/13 17:19:18;;;;;;;3.40;3.10;;;;;;;23.81;47.89;100987.34;263629;1095;114512;-69
2021/08/13 17:24:20;;;;;;;3.33;3.03;;;;;;;23.71;48.68;100990.55;263608;1096;114730;-68
2021/08/13 17:29:22;;;;;;;4.05;3.70;;;;;;;23.60;49.36;101005.60;263380;1096;114577;-71
2021/08/13 17:34:24;;;;;;;4.75;3.73;;;;;;;23.54;50.01;101011.88;263207;1096;114621;-71
2021/08/13 17:39:26;;;;;;;4.75;3.70;;;;;;;23.36;50.23;101001.06;263440;1097;114547;-71
2021/08/13 17:44:30;;;;;;;4.88;3.80;;;;;;;23.29;50.84;100998.45;263200;1095;114620;-72
2021/08/13 17:49:32;;;;;;;4.05;3.55;;;;;;;23.18;50.84;100989.20;263071;1096;114615;-71
2021/08/13 17:54:35;;;;;;;4.00;3.70;;;;;;;23.11;50.77;100985.73;262957;1095;114826;-70
2021/08/13 17:59:37;;;;;;;6.63;4.15;;;;;;;23.07;50.68;100995.31;263047;1095;114908;-72
2021/08/13 18:04:39;;;;;;;8.08;5.20;;;;;;;22.99;50.80;100998.30;263142;1095;114773;-70
2021/08/13 18:09:41;;;;;;;7.58;5.20;;;;;;;22.92;50.33;100997.52;263676;1096;114503;-70
2021/08/13 18:14:44;;;;;;;5.30;4.80;;;;;;;22.79;50.53;100992.20;263234;1095;114977;-70
2021/08/13 18:19:47;;;;;;;6.30;4.80;;;;;;;22.66;50.30;100999.34;263087;1096;114584;-71
2021/08/13 18:24:49;;;;;;;5.18;4.75;;;;;;;22.58;50.87;100994.19;263033;1096;115940;-69
2021/08/13 18:29:51;;;;;;;4.43;4.03;;;;;;;22.56;50.41;100993.60;263076;1096;115019;-71
2021/08/13 18:34:53;;;;;;;6.88;4.28;;;;;;;22.51;50.43;100996.13;263073;1096;114654;-71
2021/08/13 18:39:56;;;;;;;4.75;4.03;;;;;;;22.47;50.41;101005.69;263059;1095;114901;-70
2021/08/13 18:44:58;;;;;;;4.30;3.73;;;;;;;22.41;50.24;101001.98;263080;1096;114868;-70
2021/08/13 18:50:00;;;;;;;4.15;3.85;;;;;;;22.32;50.70;100991.69;263048;1096;114525;-74
2021/08/13 18:55:02;;;;;;;6.53;4.40;;;;;;;22.30;50.76;100988.38;263058;1095;114800;-71
2021/08/13 19:00:05;;;;;;;4.78;4.38;;;;;;;22.18;50.65;100994.43;263016;1096;114633;-70
2021/08/13 19:05:08;;;;;;;5.85;4.38;;;;;;;22.22;50.32;100992.14;263070;1095;114668;-68
2021/08/13 19:10:11;;;;;;;5.00;3.93;;;;;;;22.09;50.96;100992.19;263082;1095;114547;-71
2021/08/13 19:15:13;;;;;;;4.93;4.43;;;;;;;22.07;51.29;100992.38;263447;1096;114745;-69
2021/08/13 19:20:17;;;;;;;5.08;4.40;;;;;;;21.99;51.77;100984.55;263296;1095;114665;-72
2021/08/13 19:25:19;;;;;;;4.90;4.50;;;;;;;21.94;51.74;100992.45;263290;1096;115021;-71
2021/08/13 19:30:21;;;;;;;5.53;4.87;;;;;;;21.93;51.65;100998.88;263555;1096;114516;-72
2021/08/13 19:35:23;;;;;;;5.70;4.97;;;;;;;21.80;52.39;100983.58;263587;1096;114832;-71
2021/08/13 19:40:26;;;;;;;5.13;4.73;;;;;;;21.72;52.75;100981.13;263274;1096;114645;-70
2021/08/13 19:45:28;;;;;;;5.25;4.85;;;;;;;21.70;53.28;100975.97;263307;1096;114822;-70
2021/08/13 19:50:31;;;;;;;5.98;5.08;;;;;;;21.64;53.91;100962.53;263582;1096;114606;-70
2021/08/13 19:55:35;;;;;;;5.05;4.65;;;;;;;21.53;54.17;100977.45;263612;1095;114694;-70
2021/08/13 20:00:37;;;;;;;6.05;5.50;;;;;;;21.45;54.62;100983.91;263290;1095;115071;-72
2021/08/13 20:05:39;;;;;;;5.18;4.68;;;;;;;21.43;55.01;100977.08;263599;1095;114616;-70
2021/08/13 20:10:41;;;;;;;6.45;5.68;;;;;;;21.38;55.14;100971.52;263651;1096;115088;-70
2021/08/13 20:15:43;;;;;;;8.05;5.50;;;;;;;21.26;55.91;100977.50;263617;1095;115222;-71
2021/08/13 20:20:46;;;;;;;7.18;6.48;;;;;;;21.13;56.22;100982.88;263621;1096;114902;-70
2021/08/13 20:25:50;;;;;;;6.30;5.80;;;;;;;21.08;56.59;100979.99;263011;1095;114776;-70
2021/08/13 20:30:54;;;;;;;6.15;5.65;;;;;;;21.04;56.63;100968.83;263552;1096;114684;-69
2021/08/13 20:35:56;;;;;;;6.83;5.67;;;;;;;20.99;57.19;100965.13;263659;1096;114561;-70
2021/08/13 20:40:58;;;;;;;6.70;6.10;;;;;;;20.97;57.32;100964.48;263583;1095;115133;-71
2021/08/13 20:46:00;;;;;;;6.68;5.98;;;;;;;20.95;56.87;100955.83;263157;1095;114940;-70
2021/08/13 20:51:03;;;;;;;6.58;6.08;;;;;;;20.88;57.45;100949.63;263642;1096;114653;-69
2021/08/13 20:56:05;;;;;;;6.53;5.90;;;;;;;20.82;57.67;100937.83;263641;1096;115092;-69
2021/08/13 21:01:07;;;;;;;7.05;6.45;;;;;;;20.66;58.44;100947.13;263868;1095;114496;-70
2021/08/13 21:06:09;;;;;;;6.50;5.90;;;;;;;20.58;58.76;100936.58;263797;1095;114634;-69
2021/08/13 21:11:12;;;;;;;6.35;5.78;;;;;;;20.60;58.67;100947.14;263689;1096;114791;-71
2021/08/13 21:16:14;;;;;;;7.63;6.20;;;;;;;20.39;59.85;100937.35;263655;1094;114796;-70
2021/08/13 21:21:16;;;;;;;7.75;7.00;;;;;;;20.37;59.77;100939.43;263558;1095;115030;-71
2021/08/13 21:26:20;;;;;;;7.70;7.00;;;;;;;20.14;60.93;100934.42;263700;1095;114615;-70
2021/08/13 21:31:22;;;;;;;;;;;;;;;20.11;61.04;100922.22;263628;1095;114517;-71
2021/08/13 21:36:24;;;;;;;6.23;5.70;;;;;;;20.12;61.02;100921.19;263717;1094;101323;-69
2021/08/13 21:41:26;;;;;;;7.13;6.53;;;;;;;20.07;61.27;100923.66;263311;1096;114745;-70
2021/08/13 21:46:29;;;;;;;6.83;6.18;;;;;;;20.04;61.56;100918.69;263614;1096;115055;-70
2021/08/13 21:51:32;;;;;;;6.95;6.10;;;;;;;19.92;62.12;100931.04;263380;1095;114531;-69
2021/08/13 21:56:34;;;;;;;6.53;5.93;;;;;;;19.83;62.58;100923.17;263371;1095;114624;-70
2021/08/13 22:01:36;;;;;;;7.18;6.35;;;;;;;19.72;63.48;100921.06;263651;1095;114563;-69
2021/08/13 22:06:38;;;;;;;7.28;6.60;;;;;;;19.60;63.50;100914.59;263601;1095;114503;-70
2021/08/13 22:11:41;;;;;;;9.13;6.80;;;;;;;19.57;63.98;100917.66;263588;1095;114831;-70
2021/08/13 22:16:43;;;;;;;7.70;6.48;;;;;;;19.62;63.65;100919.77;263642;1095;114835;-71
2021/08/13 22:21:46;;;;;;;6.75;6.15;;;;;;;19.60;63.72;100901.18;263637;1096;114676;-70
2021/08/13 22:26:48;;;;;;;7.08;6.48;;;;;;;19.52;63.98;100902.17;263644;1096;114570;-70
2021/08/13 22:31:50;;;;;;;7.63;6.48;;;;;;;19.53;64.21;100908.36;263625;1095;114582;-69
2021/08/13 22:36:52;;;;;;;8.50;7.70;;;;;;;19.44;64.64;100885.44;263620;1095;114576;-70
2021/08/13 22:41:54;;;;;;;7.85;6.98;;;;;;;19.38;64.88;100896.94;263288;1096;114787;-70
2021/08/13 22:46:56;;;;;;;8.28;7.15;;;;;;;19.44;64.50;100893.48;263370;1095;114588;-70
2021/08/13 22:51:58;;;;;;;7.85;7.20;;;;;;;19.41;64.48;100891.19;263631;1094;114557;-70
2021/08/13 22:57:01;;;;;;;8.28;6.83;;;;;;;19.37;64.81;100880.03;263609;1095;115272;-70